River Corners, Ohio
Current Conditions -  °F | °C
As of 4:53 AM on Sunday 21 Dec 2014 (Local Time) from KLPR Reporting Station
Haze Haze  
Wind Chill: 28°   Ceiling: 2700
Heat Index: 28°   Visibility: 6mi
Dew Point: 25°   Wind: 0mph
Humidity: 88%   Direction: NA
Pressure: 30.3"   Gusts: NA
Location:  41.1001°N, 82.0965°W
Report Text: KLPR 210953Z AUTO 00000KT 6SM BR OVC027 M02/M04 A3030 RMK AO2 SLP268 T10221039 TSNO
Loading
Personal Weather Stations






























Interactive Weather Map New forecast layout! Learn more

10-Day Weather Forecast

Advertisements
Track Severe Weather on mobile